createdAt,value
2022-10-05T00:00:01.885Z,14.3
2022-10-05T00:01:05.305Z,14.3
2022-10-05T00:02:07.993Z,14.3
2022-10-05T00:03:10.733Z,14.3
2022-10-05T00:04:13.748Z,14.3
2022-10-05T00:05:17.020Z,14.3
2022-10-05T00:06:20.280Z,14.3
2022-10-05T00:07:22.728Z,14.3
2022-10-05T00:08:25.258Z,14.3
2022-10-05T00:09:27.953Z,14.3
2022-10-05T00:10:31.489Z,14.3
2022-10-05T00:11:34.642Z,14.3
2022-10-05T00:12:37.728Z,14.3
2022-10-05T00:13:40.535Z,14.3
2022-10-05T00:14:44.056Z,14.3
2022-10-05T00:15:47.883Z,14.2
2022-10-05T00:16:52.488Z,14.2
2022-10-05T00:17:55.673Z,14.2
2022-10-05T00:18:59.049Z,14.2
2022-10-05T00:20:01.611Z,14.2
2022-10-05T00:21:04.755Z,14.2
2022-10-05T00:22:07.539Z,14.2
2022-10-05T00:23:09.974Z,14.2
2022-10-05T00:24:13.267Z,14.2
2022-10-05T00:25:16.608Z,14.2
2022-10-05T00:26:20.038Z,14.2
2022-10-05T00:27:23.020Z,14.2
2022-10-05T00:28:26.327Z,14.2
2022-10-05T00:29:29.780Z,14.2
2022-10-05T00:30:33.179Z,14.2
2022-10-05T00:31:36.944Z,14.2
2022-10-05T00:32:40.605Z,14.1
2022-10-05T00:33:43.787Z,14.1
2022-10-05T00:34:46.773Z,14.1
2022-10-05T00:35:49.781Z,14.1
2022-10-05T00:36:53.271Z,14.1
2022-10-05T00:37:56.155Z,14.1
2022-10-05T00:38:59.259Z,14.2
2022-10-05T00:40:02.372Z,14.1
2022-10-05T00:41:06.044Z,14.1
2022-10-05T00:42:09.825Z,14.2
2022-10-05T00:43:12.975Z,14.2
2022-10-05T00:44:15.694Z,14.2
2022-10-05T00:45:18.915Z,14.1
2022-10-05T00:46:22.672Z,14.1
2022-10-05T00:47:26.815Z,14.2
2022-10-05T00:48:30.225Z,14.1
2022-10-05T00:49:33.602Z,14.1
2022-10-05T00:50:36.662Z,14.1
2022-10-05T00:51:38.900Z,14.1
2022-10-05T00:52:41.688Z,14.1
2022-10-05T00:53:44.924Z,14.1
2022-10-05T00:54:47.640Z,14.1
2022-10-05T00:55:50.649Z,14.1
2022-10-05T00:56:53.449Z,14.1
2022-10-05T00:57:56.366Z,14.1
2022-10-05T00:58:58.525Z,14.1
2022-10-05T01:00:01.803Z,14.1
2022-10-05T01:01:05.253Z,14.1
2022-10-05T01:02:08.929Z,14.1
2022-10-05T01:03:12.841Z,14.1
2022-10-05T01:04:15.348Z,14.1
2022-10-05T01:05:18.626Z,14.1
2022-10-05T01:06:21.235Z,14.1
2022-10-05T01:07:23.832Z,14.1
2022-10-05T01:08:26.616Z,14.1
2022-10-05T01:09:29.801Z,14.1
2022-10-05T01:10:32.384Z,14.1
2022-10-05T01:11:35.564Z,14.2
2022-10-05T01:12:38.077Z,14.2
2022-10-05T01:13:41.481Z,14.2
2022-10-05T01:14:44.202Z,14.2
2022-10-05T01:15:46.878Z,14.2
2022-10-05T01:16:51.768Z,14.2
2022-10-05T01:17:55.861Z,14.2
2022-10-05T01:18:59.533Z,14.2
2022-10-05T01:20:02.987Z,14.2
2022-10-05T01:21:06.443Z,14.2
2022-10-05T01:22:09.560Z,14.2
2022-10-05T01:23:12.361Z,14.2
2022-10-05T01:24:15.438Z,14.2
2022-10-05T01:25:18.505Z,14.2
2022-10-05T01:26:21.289Z,14.2
2022-10-05T01:27:24.099Z,14.2
2022-10-05T01:28:26.807Z,14.2
2022-10-05T01:29:30.051Z,14.2
2022-10-05T01:30:33.772Z,14.2
2022-10-05T01:31:37.338Z,14.2
2022-10-05T01:32:40.775Z,14.2
2022-10-05T01:33:44.305Z,14.2
2022-10-05T01:34:48.045Z,14.2
2022-10-05T01:35:50.858Z,14.2
2022-10-05T01:36:54.016Z,14.2
2022-10-05T01:37:57.438Z,14.2
2022-10-05T01:39:00.324Z,14.2
2022-10-05T01:40:03.470Z,14.2
2022-10-05T01:41:07.211Z,14.2
2022-10-05T01:42:10.303Z,14.2
2022-10-05T01:43:13.417Z,14.2
2022-10-05T01:44:16.563Z,14.2
2022-10-05T01:45:19.169Z,14.3
2022-10-05T01:46:22.582Z,14.3
2022-10-05T01:47:25.785Z,14.3
2022-10-05T01:48:28.581Z,14.3
2022-10-05T01:49:31.507Z,14.3
2022-10-05T01:50:35.000Z,14.3
2022-10-05T01:51:38.529Z,14.3
2022-10-05T01:52:41.386Z,14.3
2022-10-05T01:53:44.260Z,14.3
2022-10-05T01:54:47.606Z,14.4
2022-10-05T01:55:50.770Z,14.3
2022-10-05T01:56:53.452Z,14.3
2022-10-05T01:57:56.718Z,14.4
2022-10-05T01:59:00.000Z,14.3
2022-10-05T02:00:02.708Z,14.3
2022-10-05T02:01:06.314Z,14.4
2022-10-05T02:02:09.850Z,14.3
2022-10-05T02:03:13.085Z,14.3
2022-10-05T02:05:06.215Z,14.3
2022-10-05T02:06:09.934Z,14.3
2022-10-05T02:07:12.647Z,14.3
2022-10-05T02:08:16.023Z,14.3
2022-10-05T02:09:18.187Z,14.3
2022-10-05T02:10:21.541Z,14.3
2022-10-05T02:11:24.439Z,14.3
2022-10-05T02:12:27.626Z,14.3
2022-10-05T02:13:31.037Z,14.3
2022-10-05T02:14:34.809Z,14.3
2022-10-05T02:15:38.472Z,14.3
2022-10-05T02:16:41.990Z,14.4
2022-10-05T02:17:44.567Z,14.3
2022-10-05T02:18:47.272Z,14.3
2022-10-05T02:19:50.960Z,14.4
2022-10-05T02:20:54.980Z,14.4
2022-10-05T02:21:58.780Z,14.4
2022-10-05T02:23:01.850Z,14.4
2022-10-05T02:24:05.290Z,14.3
2022-10-05T02:25:07.637Z,14.4
2022-10-05T02:26:11.092Z,14.4
2022-10-05T02:27:13.648Z,14.4
2022-10-05T02:28:17.548Z,14.4
2022-10-05T02:29:21.191Z,14.4
2022-10-05T02:30:24.129Z,14.4
2022-10-05T02:31:28.248Z,14.4
2022-10-05T02:32:31.654Z,14.4
2022-10-05T02:33:35.450Z,14.4
2022-10-05T02:34:38.549Z,14.4
2022-10-05T02:35:41.400Z,14.4
2022-10-05T02:36:45.350Z,14.4
2022-10-05T02:37:50.974Z,14.5
2022-10-05T02:38:53.644Z,14.5
2022-10-05T02:39:57.362Z,14.5
2022-10-05T02:41:00.157Z,14.5
2022-10-05T02:42:03.023Z,14.5
2022-10-05T02:43:06.102Z,14.5
2022-10-05T02:44:08.413Z,14.5
2022-10-05T02:45:11.295Z,14.6
2022-10-05T02:46:14.714Z,14.5
2022-10-05T02:47:17.171Z,14.6
2022-10-05T02:48:20.934Z,14.6
2022-10-05T02:49:23.522Z,14.6
2022-10-05T02:50:26.325Z,14.6
2022-10-05T02:51:29.442Z,14.6
2022-10-05T02:52:32.469Z,14.6
2022-10-05T02:53:36.281Z,14.6
2022-10-05T02:54:39.150Z,14.6
2022-10-05T02:55:41.667Z,14.6
2022-10-05T02:56:45.698Z,14.6
2022-10-05T02:57:49.963Z,14.7
2022-10-05T02:58:53.026Z,14.7
2022-10-05T02:59:56.088Z,14.7
2022-10-05T03:00:59.324Z,14.7
2022-10-05T03:02:03.088Z,14.7
2022-10-05T03:03:06.332Z,14.7
2022-10-05T03:04:09.729Z,14.7
2022-10-05T03:05:12.792Z,14.7
2022-10-05T03:06:15.875Z,14.7
2022-10-05T03:07:19.220Z,14.7
2022-10-05T03:08:22.116Z,14.7
2022-10-05T03:09:26.186Z,14.7
2022-10-05T03:10:29.435Z,14.7
2022-10-05T03:11:31.964Z,14.7
2022-10-05T03:12:35.133Z,14.7
2022-10-05T03:13:37.393Z,14.7
2022-10-05T03:14:39.924Z,14.7
2022-10-05T03:15:42.887Z,14.7
2022-10-05T03:16:46.617Z,14.7
2022-10-05T03:17:51.686Z,14.7
2022-10-05T03:18:54.653Z,14.7
2022-10-05T03:19:57.948Z,14.7
2022-10-05T03:21:00.744Z,14.7
2022-10-05T03:22:03.900Z,14.7
2022-10-05T03:23:06.967Z,14.7
2022-10-05T03:24:10.135Z,14.7
2022-10-05T03:25:14.030Z,14.7
2022-10-05T03:26:17.029Z,14.7
2022-10-05T03:27:19.697Z,14.8
2022-10-05T03:28:23.407Z,14.7
2022-10-05T03:29:26.171Z,14.8
2022-10-05T03:30:28.959Z,14.8
2022-10-05T03:31:31.977Z,14.7
2022-10-05T03:32:35.225Z,14.7
2022-10-05T03:33:38.411Z,14.8
2022-10-05T03:34:40.651Z,14.8
2022-10-05T03:35:44.001Z,14.7
2022-10-05T03:36:48.765Z,14.7
2022-10-05T03:37:51.900Z,14.7
2022-10-05T03:38:55.339Z,14.7
2022-10-05T03:39:57.996Z,14.7
2022-10-05T03:41:01.965Z,14.7
2022-10-05T03:42:05.033Z,14.7
2022-10-05T03:43:08.191Z,14.7
2022-10-05T03:44:10.692Z,14.7
2022-10-05T03:45:13.596Z,14.7
2022-10-05T03:46:16.999Z,14.7
2022-10-05T03:47:21.056Z,14.7
2022-10-05T03:48:24.130Z,14.7
2022-10-05T03:49:26.949Z,14.7
2022-10-05T03:50:30.119Z,14.7
2022-10-05T03:51:33.490Z,14.7
2022-10-05T03:52:36.629Z,14.7
2022-10-05T03:53:39.704Z,14.7
2022-10-05T03:54:42.905Z,14.7
2022-10-05T03:55:46.095Z,14.7
2022-10-05T03:56:50.681Z,14.7
2022-10-05T03:57:53.371Z,14.6
2022-10-05T03:58:56.635Z,14.7
2022-10-05T03:59:58.866Z,14.6
2022-10-05T04:01:01.745Z,14.6
2022-10-05T04:02:05.077Z,14.7
2022-10-05T04:03:08.595Z,14.7
2022-10-05T04:04:11.376Z,14.6
2022-10-05T04:05:14.096Z,14.6
2022-10-05T04:06:17.542Z,14.6
2022-10-05T04:07:20.265Z,14.6
2022-10-05T04:08:23.420Z,14.6
2022-10-05T04:09:26.563Z,14.6
2022-10-05T04:10:29.740Z,14.6
2022-10-05T04:11:32.909Z,14.6
2022-10-05T04:12:36.736Z,14.6
2022-10-05T04:13:39.465Z,14.6
2022-10-05T04:14:41.970Z,14.6
2022-10-05T04:15:45.534Z,14.6
2022-10-05T04:16:49.838Z,14.6
2022-10-05T04:17:53.010Z,14.6
2022-10-05T04:18:56.551Z,14.6
2022-10-05T04:19:59.972Z,14.6
2022-10-05T04:21:03.467Z,14.6
2022-10-05T04:22:06.552Z,14.6
2022-10-05T04:23:09.560Z,14.6
2022-10-05T04:24:13.249Z,14.6
2022-10-05T04:25:16.416Z,14.6
2022-10-05T04:26:19.015Z,14.6
2022-10-05T04:27:22.285Z,14.6
2022-10-05T04:28:33.155Z,14.6
2022-10-05T04:29:36.898Z,14.6
2022-10-05T04:30:40.059Z,14.6
2022-10-05T04:31:44.023Z,14.6
2022-10-05T04:32:46.872Z,14.7
2022-10-05T04:33:50.307Z,14.6
2022-10-05T04:34:53.475Z,14.6
2022-10-05T04:35:56.352Z,14.6
2022-10-05T04:36:59.439Z,14.6
2022-10-05T04:38:02.523Z,14.6
2022-10-05T04:39:05.686Z,14.6
2022-10-05T04:40:08.753Z,14.6
2022-10-05T04:41:11.936Z,14.6
2022-10-05T04:42:15.088Z,14.6
2022-10-05T04:43:18.517Z,14.6
2022-10-05T04:44:22.332Z,14.6
2022-10-05T04:45:26.053Z,14.6
2022-10-05T04:46:29.598Z,14.6
2022-10-05T04:47:33.237Z,14.6
2022-10-05T04:48:36.695Z,14.6
2022-10-05T04:49:39.566Z,14.6
2022-10-05T04:50:42.719Z,14.6
2022-10-05T04:51:51.977Z,14.5
2022-10-05T04:52:54.791Z,14.5
2022-10-05T04:53:57.878Z,14.5
2022-10-05T04:55:01.038Z,14.6
2022-10-05T04:56:04.011Z,14.5
2022-10-05T04:57:06.725Z,14.6
2022-10-05T04:58:09.308Z,14.6
2022-10-05T04:59:11.651Z,14.6
2022-10-05T05:00:15.508Z,14.5
2022-10-05T05:01:19.222Z,14.6
2022-10-05T05:02:23.047Z,14.6
2022-10-05T05:03:26.271Z,14.6
2022-10-05T05:04:29.447Z,14.5
2022-10-05T05:05:33.135Z,14.6
2022-10-05T05:06:36.223Z,14.6
2022-10-05T05:07:39.388Z,14.6
2022-10-05T05:08:42.076Z,14.5
2022-10-05T05:09:44.989Z,14.6
2022-10-05T05:10:48.496Z,14.5
2022-10-05T05:11:51.571Z,14.6
2022-10-05T05:12:54.645Z,14.6
2022-10-05T05:13:57.429Z,14.6
2022-10-05T05:15:01.297Z,14.6
2022-10-05T05:16:05.730Z,14.5
2022-10-05T05:17:13.982Z,14.5
2022-10-05T05:18:16.782Z,14.6
2022-10-05T05:19:20.199Z,14.6
2022-10-05T05:20:22.917Z,14.5
2022-10-05T05:21:26.440Z,14.5
2022-10-05T05:22:29.519Z,14.6
2022-10-05T05:23:32.876Z,14.5
2022-10-05T05:24:35.903Z,14.5
2022-10-05T05:25:38.619Z,14.5
2022-10-05T05:26:41.780Z,14.5
2022-10-05T05:27:44.660Z,14.5
2022-10-05T05:28:47.841Z,14.5
2022-10-05T05:29:51.653Z,14.5
2022-10-05T05:30:54.402Z,14.5
2022-10-05T05:31:58.605Z,14.5
2022-10-05T05:33:01.484Z,14.5
2022-10-05T05:34:04.345Z,14.5
2022-10-05T05:35:06.944Z,14.5
2022-10-05T05:36:09.825Z,14.5
2022-10-05T05:37:12.712Z,14.5
2022-10-05T05:38:16.108Z,14.5
2022-10-05T05:39:18.705Z,14.5
2022-10-05T05:40:21.811Z,14.5
2022-10-05T05:41:24.609Z,14.5
2022-10-05T05:42:28.099Z,14.5
2022-10-05T05:43:30.869Z,14.5
2022-10-05T05:44:39.641Z,14.5
2022-10-05T05:45:42.544Z,14.5
2022-10-05T05:47:06.037Z,14.5
2022-10-05T05:48:12.472Z,14.5
2022-10-05T05:49:15.911Z,14.4
2022-10-05T05:50:19.250Z,14.5
2022-10-05T05:51:22.089Z,14.5
2022-10-05T05:52:24.330Z,14.5
2022-10-05T05:53:27.507Z,14.5
2022-10-05T05:54:30.582Z,14.5
2022-10-05T05:55:34.233Z,14.5
2022-10-05T05:56:37.105Z,14.5
2022-10-05T05:57:40.523Z,14.5
2022-10-05T05:58:43.251Z,14.5
2022-10-05T05:59:46.374Z,14.5
2022-10-05T06:00:49.601Z,14.5
2022-10-05T06:01:52.559Z,14.5
2022-10-05T06:02:56.464Z,14.6
2022-10-05T06:04:00.694Z,14.6
2022-10-05T06:05:03.581Z,14.5
2022-10-05T06:06:06.836Z,14.6
2022-10-05T06:07:10.584Z,14.5
2022-10-05T06:08:13.462Z,14.5
2022-10-05T06:09:16.332Z,14.6
2022-10-05T06:10:19.767Z,14.5
2022-10-05T06:11:22.576Z,14.6
2022-10-05T06:12:24.900Z,14.5
2022-10-05T06:13:27.800Z,14.5
2022-10-05T06:14:30.906Z,14.5
2022-10-05T06:15:33.973Z,14.5
2022-10-05T06:16:37.361Z,14.5
2022-10-05T06:17:40.108Z,14.6
2022-10-05T06:18:43.119Z,14.6
2022-10-05T06:19:47.274Z,14.6
2022-10-05T06:20:50.439Z,14.6
2022-10-05T06:21:53.807Z,14.6
2022-10-05T06:22:56.952Z,14.6
2022-10-05T06:24:00.382Z,14.6
2022-10-05T06:25:03.759Z,14.6
2022-10-05T06:26:11.670Z,14.6
2022-10-05T06:27:15.055Z,14.6
2022-10-05T06:28:18.342Z,14.6
2022-10-05T06:29:22.244Z,14.6
2022-10-05T06:30:24.144Z,14.6
2022-10-05T06:31:27.815Z,14.6
2022-10-05T06:32:30.613Z,14.6
2022-10-05T06:33:33.785Z,14.7
2022-10-05T06:34:36.877Z,14.7
2022-10-05T06:35:40.713Z,14.7
2022-10-05T06:36:44.180Z,14.7
2022-10-05T06:37:47.937Z,14.7
2022-10-05T06:38:50.817Z,14.8
2022-10-05T06:40:01.689Z,14.7
2022-10-05T06:41:04.811Z,14.8
2022-10-05T06:42:08.891Z,14.8
2022-10-05T06:43:12.165Z,14.8
2022-10-05T06:44:15.265Z,14.8
2022-10-05T06:45:17.866Z,14.8
2022-10-05T06:46:20.894Z,14.8
2022-10-05T06:47:24.344Z,14.8
2022-10-05T06:48:27.814Z,14.8
2022-10-05T06:49:30.600Z,14.8
2022-10-05T06:50:33.530Z,14.8
2022-10-05T06:51:37.678Z,14.8
2022-10-05T06:52:40.691Z,14.9
2022-10-05T06:53:43.771Z,14.8
2022-10-05T06:54:47.184Z,14.9
2022-10-05T06:55:50.375Z,14.9
2022-10-05T06:56:53.425Z,14.9
2022-10-05T06:57:57.051Z,14.9
2022-10-05T06:59:00.132Z,14.9
2022-10-05T07:00:03.022Z,14.9
2022-10-05T07:01:06.655Z,14.9
2022-10-05T07:02:09.712Z,14.9
2022-10-05T07:03:12.988Z,14.9
2022-10-05T07:04:16.127Z,14.9
2022-10-05T07:05:19.911Z,14.9
2022-10-05T07:06:23.949Z,15
2022-10-05T07:07:28.120Z,15
2022-10-05T07:08:31.611Z,15
2022-10-05T07:09:34.699Z,15
2022-10-05T07:10:37.210Z,15
2022-10-05T07:11:40.965Z,15
2022-10-05T07:12:44.067Z,15
2022-10-05T07:13:47.228Z,15
2022-10-05T07:14:50.990Z,15
2022-10-05T07:15:53.988Z,15
2022-10-05T07:16:57.521Z,15
2022-10-05T07:18:00.590Z,15.1
2022-10-05T07:19:03.373Z,15.1
2022-10-05T07:20:06.652Z,15.1
2022-10-05T07:21:09.443Z,15.1
2022-10-05T07:22:12.356Z,15.1
2022-10-05T07:23:16.306Z,15.1
2022-10-05T07:24:20.016Z,15.1
2022-10-05T07:25:23.298Z,15.1
2022-10-05T07:26:26.676Z,15.2
2022-10-05T07:27:30.186Z,15.2
2022-10-05T07:28:32.996Z,15.2
2022-10-05T07:29:35.810Z,15.2
2022-10-05T07:30:39.368Z,15.2
2022-10-05T07:31:42.615Z,15.2
2022-10-05T07:32:45.834Z,15.3
2022-10-05T07:33:48.937Z,15.3
2022-10-05T07:34:52.313Z,15.3
2022-10-05T07:35:55.313Z,15.3
2022-10-05T07:36:59.689Z,15.4
2022-10-05T07:38:03.138Z,15.4
2022-10-05T07:39:07.306Z,15.4
2022-10-05T07:40:10.098Z,15.4
2022-10-05T07:41:12.979Z,15.4
2022-10-05T07:42:16.046Z,15.5
2022-10-05T07:43:19.767Z,15.5
2022-10-05T07:44:22.935Z,15.5
2022-10-05T07:45:26.176Z,15.5
2022-10-05T07:46:30.360Z,15.5
2022-10-05T07:47:33.152Z,15.6
2022-10-05T07:48:36.164Z,15.6
2022-10-05T07:49:39.343Z,15.6
2022-10-05T07:50:42.131Z,15.6
2022-10-05T07:51:44.647Z,15.6
2022-10-05T07:52:48.074Z,15.7
2022-10-05T07:53:50.819Z,15.7
2022-10-05T07:54:54.718Z,15.7
2022-10-05T07:55:57.821Z,15.7
2022-10-05T07:57:00.617Z,15.7
2022-10-05T07:58:03.802Z,15.8
2022-10-05T07:59:06.717Z,15.8
2022-10-05T08:00:09.396Z,15.8
2022-10-05T08:01:13.128Z,15.8
2022-10-05T08:02:16.257Z,15.9
2022-10-05T08:03:20.454Z,15.9
2022-10-05T08:04:23.875Z,15.9
2022-10-05T08:05:27.394Z,16
2022-10-05T08:06:30.554Z,16
2022-10-05T08:07:33.634Z,16
2022-10-05T08:08:36.717Z,16.1
2022-10-05T08:09:39.951Z,16
2022-10-05T08:10:43.936Z,16.1
2022-10-05T08:11:48.684Z,16.1
2022-10-05T08:12:52.340Z,16.1
2022-10-05T08:13:55.499Z,16.2
2022-10-05T08:14:58.357Z,16.2
2022-10-05T08:16:01.614Z,16.3
2022-10-05T08:17:04.735Z,16.3
2022-10-05T08:18:08.760Z,16.3
2022-10-05T08:19:12.470Z,16.4
2022-10-05T08:20:15.945Z,16.4
2022-10-05T08:21:18.990Z,16.4
2022-10-05T08:22:22.072Z,16.4
2022-10-05T08:23:25.263Z,16.4
2022-10-05T08:24:28.770Z,16.4
2022-10-05T08:25:31.977Z,16.5
2022-10-05T08:26:35.913Z,16.5
2022-10-05T08:27:38.900Z,16.5
2022-10-05T08:28:42.172Z,16.5
2022-10-05T08:29:45.067Z,16.5
2022-10-05T08:30:48.402Z,16.6
2022-10-05T08:31:52.045Z,16.6
2022-10-05T08:32:54.553Z,16.6
2022-10-05T08:33:57.915Z,16.7
2022-10-05T08:35:01.266Z,16.6
2022-10-05T08:36:04.725Z,16.7
2022-10-05T08:37:08.145Z,16.7
2022-10-05T08:38:11.135Z,16.7
2022-10-05T08:39:13.116Z,16.7
2022-10-05T08:40:16.557Z,16.7
2022-10-05T08:41:18.831Z,16.8
2022-10-05T08:42:22.954Z,16.8
2022-10-05T08:43:25.483Z,16.8
2022-10-05T08:44:28.201Z,16.8
2022-10-05T08:45:30.712Z,16.8
2022-10-05T08:46:33.504Z,16.8
2022-10-05T08:47:36.417Z,16.8
2022-10-05T08:48:39.236Z,16.9
2022-10-05T08:49:42.751Z,16.9
2022-10-05T08:50:45.953Z,16.9
2022-10-05T08:51:50.370Z,16.9
2022-10-05T08:52:52.998Z,16.9
2022-10-05T08:53:55.716Z,16.9
2022-10-05T08:54:58.525Z,16.9
2022-10-05T08:56:01.514Z,17
2022-10-05T08:57:04.924Z,17
2022-10-05T08:58:08.513Z,17
2022-10-05T08:59:11.851Z,17.1
2022-10-05T09:00:15.049Z,17.1
2022-10-05T09:01:18.300Z,17.1
2022-10-05T09:02:22.008Z,17.1
2022-10-05T09:03:25.839Z,17.1
2022-10-05T09:04:36.789Z,17.2
2022-10-05T09:05:40.080Z,17.2
2022-10-05T09:06:43.523Z,17.2
2022-10-05T09:07:46.483Z,17.2
2022-10-05T09:08:49.634Z,17.2
2022-10-05T09:09:52.624Z,17.2
2022-10-05T09:10:59.476Z,17.2
2022-10-05T09:12:03.104Z,17.2
2022-10-05T09:13:06.896Z,17.2
2022-10-05T09:14:10.811Z,17.2
2022-10-05T09:15:31.024Z,17.2
2022-10-05T09:16:34.553Z,17.2
2022-10-05T09:17:40.115Z,17.2
2022-10-05T09:18:43.186Z,17.2
2022-10-05T09:19:47.176Z,17.3
2022-10-05T09:20:50.753Z,17.3
2022-10-05T09:21:53.064Z,17.3
2022-10-05T09:22:57.124Z,17.3
2022-10-05T09:24:00.026Z,17.3
2022-10-05T09:25:02.898Z,17.3
2022-10-05T09:26:06.337Z,17.4
2022-10-05T09:27:09.543Z,17.4
2022-10-05T09:28:12.679Z,17.4
2022-10-05T09:29:17.475Z,17.4
2022-10-05T09:30:20.541Z,17.4
2022-10-05T09:31:24.378Z,17.4
2022-10-05T09:32:28.452Z,17.5
2022-10-05T09:33:31.873Z,17.5
2022-10-05T09:34:35.619Z,17.5
2022-10-05T09:35:38.206Z,17.5
2022-10-05T09:36:41.442Z,17.5
2022-10-05T09:37:44.329Z,17.5
2022-10-05T09:38:47.301Z,17.6
2022-10-05T09:39:50.657Z,17.6
2022-10-05T09:40:53.372Z,17.7
2022-10-05T09:41:56.448Z,17.7
2022-10-05T09:42:59.250Z,17.7
2022-10-05T09:44:02.082Z,17.8
2022-10-05T09:45:06.159Z,17.7
2022-10-05T09:46:10.091Z,17.8
2022-10-05T09:47:13.045Z,17.8
2022-10-05T09:48:15.918Z,17.8
2022-10-05T09:49:18.626Z,17.9
2022-10-05T09:50:21.701Z,17.9
2022-10-05T09:51:24.478Z,17.9
2022-10-05T09:52:28.027Z,17.9
2022-10-05T09:53:31.152Z,17.9
2022-10-05T09:54:34.882Z,18
2022-10-05T09:55:38.007Z,18
2022-10-05T09:56:40.432Z,18
2022-10-05T09:57:43.651Z,18
2022-10-05T09:58:47.558Z,18
2022-10-05T09:59:50.971Z,18
2022-10-05T10:01:32.969Z,18
2022-10-05T10:02:38.653Z,18.1
2022-10-05T10:03:42.894Z,18.1
2022-10-05T10:04:46.037Z,18.1
2022-10-05T10:05:49.204Z,18.1
2022-10-05T10:06:52.023Z,18.1
2022-10-05T10:07:55.259Z,18.1
2022-10-05T10:08:57.986Z,18.2
2022-10-05T10:10:00.953Z,18.2
2022-10-05T10:11:04.312Z,18.2
2022-10-05T10:12:07.493Z,18.2
2022-10-05T10:13:10.858Z,18.2
2022-10-05T10:14:14.048Z,18.2
2022-10-05T10:15:16.641Z,18.2
2022-10-05T10:16:21.124Z,18.2
2022-10-05T10:17:24.408Z,18.2
2022-10-05T10:18:27.293Z,18.3
2022-10-05T10:19:30.356Z,18.3
2022-10-05T10:20:33.223Z,18.3
2022-10-05T10:21:36.654Z,18.3
2022-10-05T10:22:44.026Z,18.3
2022-10-05T10:23:47.095Z,18.3
2022-10-05T10:24:49.816Z,18.3
2022-10-05T10:25:53.317Z,18.3
2022-10-05T10:26:56.783Z,18.4
2022-10-05T10:27:59.215Z,18.4
2022-10-05T10:29:01.634Z,18.4
2022-10-05T10:30:04.235Z,18.4
2022-10-05T10:31:07.237Z,18.4
2022-10-05T10:32:11.053Z,18.5
2022-10-05T10:33:13.946Z,18.5
2022-10-05T10:34:16.557Z,18.5
2022-10-05T10:35:19.680Z,18.5
2022-10-05T10:36:22.781Z,18.6
2022-10-05T10:37:25.865Z,18.6
2022-10-05T10:38:29.318Z,18.6
2022-10-05T10:39:32.134Z,18.6
2022-10-05T10:40:35.563Z,18.6
2022-10-05T10:41:38.569Z,18.6
2022-10-05T10:42:41.832Z,18.6
2022-10-05T10:43:45.533Z,18.6
2022-10-05T10:44:49.257Z,18.7
2022-10-05T10:45:52.413Z,18.7
2022-10-05T10:46:55.815Z,18.7
2022-10-05T10:48:00.121Z,18.7
2022-10-05T10:49:03.183Z,18.7
2022-10-05T10:50:06.817Z,18.8
2022-10-05T10:51:09.744Z,18.8
2022-10-05T10:52:13.087Z,18.8
2022-10-05T10:53:16.446Z,18.8
2022-10-05T10:54:19.576Z,18.8
2022-10-05T10:55:22.397Z,18.8
2022-10-05T10:56:25.845Z,18.8
2022-10-05T10:57:29.393Z,18.8
2022-10-05T10:58:32.752Z,18.8
2022-10-05T10:59:35.585Z,18.8
2022-10-05T11:00:38.125Z,18.8
2022-10-05T11:01:41.542Z,18.8
2022-10-05T11:02:45.342Z,18.8
2022-10-05T11:03:49.447Z,18.9
2022-10-05T11:04:51.622Z,18.9
2022-10-05T11:05:54.487Z,18.9
2022-10-05T11:06:57.558Z,18.9
2022-10-05T11:07:59.984Z,18.9
2022-10-05T11:09:03.407Z,18.9
2022-10-05T11:10:06.895Z,19
2022-10-05T11:11:09.725Z,19
2022-10-05T11:12:13.094Z,19
2022-10-05T11:13:15.890Z,19
2022-10-05T11:14:18.468Z,19.1
2022-10-05T11:15:20.990Z,19.1
2022-10-05T11:16:24.245Z,19.1
2022-10-05T11:17:27.330Z,19.1
2022-10-05T11:18:30.551Z,19.1
2022-10-05T11:20:04.656Z,19.2
2022-10-05T11:21:08.442Z,19.2
2022-10-05T11:22:11.811Z,19.2
2022-10-05T11:23:14.967Z,19.2
2022-10-05T11:24:18.965Z,19.2
2022-10-05T11:25:21.843Z,19.2
2022-10-05T11:26:24.311Z,19.2
2022-10-05T11:27:27.383Z,19.1
2022-10-05T11:28:30.799Z,19.1
2022-10-05T11:29:34.022Z,19.1
2022-10-05T11:30:37.490Z,19.1
2022-10-05T11:31:40.641Z,19
2022-10-05T11:32:44.382Z,19
2022-10-05T11:33:48.045Z,19
2022-10-05T11:34:51.914Z,19
2022-10-05T11:35:54.412Z,19
2022-10-05T11:36:57.333Z,19
2022-10-05T11:37:59.851Z,19
2022-10-05T11:39:02.913Z,19
2022-10-05T11:40:05.592Z,19
2022-10-05T11:41:08.116Z,19.1
2022-10-05T11:42:10.634Z,19.1
2022-10-05T11:43:14.054Z,19.1
2022-10-05T11:44:16.686Z,19.1
2022-10-05T11:45:19.285Z,19.1
2022-10-05T11:46:23.118Z,19.1
2022-10-05T11:47:25.916Z,19.1
2022-10-05T11:48:28.869Z,19.1
2022-10-05T11:49:32.607Z,19.1
2022-10-05T11:50:36.238Z,19.1
2022-10-05T11:51:39.034Z,19.1
2022-10-05T11:52:42.365Z,19.1
2022-10-05T11:53:45.602Z,19.2
2022-10-05T11:55:18.752Z,19.2
2022-10-05T11:56:22.333Z,19.2
2022-10-05T11:57:25.403Z,19.2
2022-10-05T11:58:28.124Z,19.2
2022-10-05T11:59:31.656Z,19.2
2022-10-05T12:00:34.733Z,19.2
2022-10-05T12:01:37.892Z,19.2
2022-10-05T12:02:44.485Z,19.2
2022-10-05T12:03:49.093Z,19.2
2022-10-05T12:04:52.539Z,19.2
2022-10-05T12:05:56.618Z,19.2
2022-10-05T12:06:59.415Z,19.2
2022-10-05T12:08:02.247Z,19.3
2022-10-05T12:09:04.839Z,19.3
2022-10-05T12:10:08.100Z,19.2
2022-10-05T12:11:11.082Z,19.3
2022-10-05T12:12:13.882Z,19.3
2022-10-05T12:13:17.116Z,19.3
2022-10-05T12:14:20.620Z,19.2
2022-10-05T12:15:23.875Z,19.2
2022-10-05T12:16:26.752Z,19.3
2022-10-05T12:17:31.009Z,19.3
2022-10-05T12:18:34.474Z,19.3
2022-10-05T12:19:38.091Z,19.3
2022-10-05T12:20:41.223Z,19.3
2022-10-05T12:21:45.401Z,19.3
2022-10-05T12:22:47.715Z,19.3
2022-10-05T12:23:50.508Z,19.3
2022-10-05T12:24:53.584Z,19.3
2022-10-05T12:25:56.322Z,19.3
2022-10-05T12:26:59.768Z,19.3
2022-10-05T12:28:02.776Z,19.3
2022-10-05T12:29:05.754Z,19.3
2022-10-05T12:30:09.181Z,19.3
2022-10-05T12:31:12.452Z,19.3
2022-10-05T12:32:15.772Z,19.3
2022-10-05T12:33:19.120Z,19.3
2022-10-05T12:34:22.195Z,19.2
2022-10-05T12:35:49.865Z,19.2
2022-10-05T12:37:05.844Z,19.2
2022-10-05T12:38:09.192Z,19.2
2022-10-05T12:39:12.177Z,19.2
2022-10-05T12:40:15.432Z,19.2
2022-10-05T12:41:18.589Z,19.2
2022-10-05T12:42:21.768Z,19.2
2022-10-05T12:43:24.566Z,19.2
2022-10-05T12:44:28.017Z,19.2
2022-10-05T12:45:31.486Z,19.2
2022-10-05T12:46:34.455Z,19.2
2022-10-05T12:47:38.485Z,19.2
2022-10-05T12:48:42.153Z,19.1
2022-10-05T12:49:45.145Z,19.1
2022-10-05T12:50:48.560Z,19.1
2022-10-05T12:51:52.021Z,19.1
2022-10-05T12:52:55.941Z,19.2
2022-10-05T12:53:59.177Z,19.2
2022-10-05T12:55:01.614Z,19.2
2022-10-05T12:56:04.776Z,19.2
2022-10-05T12:57:07.365Z,19.2
2022-10-05T12:58:10.441Z,19.3
2022-10-05T12:59:13.854Z,19.3
2022-10-05T13:00:23.965Z,19.3
2022-10-05T13:01:26.747Z,19.3
2022-10-05T13:02:29.647Z,19.3
2022-10-05T13:03:33.020Z,19.3
2022-10-05T13:04:36.110Z,19.4
2022-10-05T13:05:39.295Z,19.4
2022-10-05T13:06:42.709Z,19.3
2022-10-05T13:07:45.524Z,19.4
2022-10-05T13:08:49.524Z,19.4
2022-10-05T13:09:52.686Z,19.4
2022-10-05T13:11:02.601Z,19.4
2022-10-05T13:12:05.944Z,19.3
2022-10-05T13:13:09.395Z,19.4
2022-10-05T13:14:12.755Z,19.4
2022-10-05T13:15:15.927Z,19.4
2022-10-05T13:16:19.235Z,19.4
2022-10-05T13:17:22.411Z,19.4
2022-10-05T13:18:25.919Z,19.4
2022-10-05T13:19:29.072Z,19.5
2022-10-05T13:20:31.403Z,19.5
2022-10-05T13:21:35.107Z,19.5
2022-10-05T13:22:37.901Z,19.5
2022-10-05T13:23:40.259Z,19.6
2022-10-05T13:24:44.328Z,19.6
2022-10-05T13:25:48.129Z,19.7
2022-10-05T13:26:51.823Z,19.7
2022-10-05T13:27:54.867Z,19.7
2022-10-05T13:28:58.229Z,19.8
2022-10-05T13:30:01.571Z,19.8
2022-10-05T13:31:04.879Z,19.8
2022-10-05T13:32:08.280Z,19.8
2022-10-05T13:33:11.345Z,19.8
2022-10-05T13:34:14.778Z,19.8
2022-10-05T13:35:17.848Z,19.8
2022-10-05T13:36:20.985Z,19.8
2022-10-05T13:37:24.095Z,19.8
2022-10-05T13:38:27.235Z,19.8
2022-10-05T13:39:30.118Z,19.8
2022-10-05T13:40:34.170Z,19.7
2022-10-05T13:41:37.244Z,19.8
2022-10-05T13:42:40.036Z,19.7
2022-10-05T13:43:43.670Z,19.7
2022-10-05T13:44:46.462Z,19.8
2022-10-05T13:45:57.455Z,19.8
2022-10-05T13:47:00.473Z,19.8
2022-10-05T13:48:03.076Z,19.8
2022-10-05T13:49:05.875Z,19.8
2022-10-05T13:50:09.606Z,19.8
2022-10-05T13:51:13.442Z,19.8
2022-10-05T13:52:18.322Z,19.8
2022-10-05T13:53:22.035Z,19.7
2022-10-05T13:54:24.646Z,19.7
2022-10-05T13:55:27.753Z,19.7
2022-10-05T13:56:31.648Z,19.7
2022-10-05T13:57:34.442Z,19.7
2022-10-05T13:58:38.103Z,19.7
2022-10-05T13:59:40.895Z,19.7
2022-10-05T14:00:43.969Z,19.7
2022-10-05T14:01:47.662Z,19.8
2022-10-05T14:02:50.901Z,19.8
2022-10-05T14:03:54.131Z,19.8
2022-10-05T14:04:57.230Z,19.8
2022-10-05T14:06:00.871Z,19.8
2022-10-05T14:07:04.958Z,19.8
2022-10-05T14:08:08.954Z,19.8
2022-10-05T14:09:12.025Z,19.8